Pleasant Ridge, Louisiana
Current Conditions -  °F | °C
As of 4:53 PM on Sunday 21 Dec 2014 (Local Time) from KESF Reporting Station
Clear Clear  
Wind Chill: 51°   Ceiling: Unl
Heat Index: 51°   Visibility: 10mi
Dew Point: 47°   Wind: 3mph
Humidity: 86%   Direction: 150°SSE
Pressure: 29.99"   Gusts: NA
Location:  31.8657°N, 92.2616°W
Report Text: KESF 212253Z AUTO 15003KT 10SM CLR 11/08 A2999 RMK AO2 SLP156 T01060083
Loading
Personal Weather Stations






























Interactive Weather Map New forecast layout! Learn more

10-Day Weather Forecast

Advertisements
Track Severe Weather on mobile